createdAt,value
2019-03-31T00:00:04.710Z,65.97
2019-03-31T00:02:35.033Z,66.07
2019-03-31T00:05:05.359Z,65.89
2019-03-31T00:07:35.681Z,65.95
2019-03-31T00:12:45.419Z,65.91
2019-03-31T00:15:15.462Z,66.03
2019-03-31T00:17:45.488Z,66.32
2019-03-31T00:20:15.821Z,66.53
2019-03-31T00:22:45.844Z,66.55
2019-03-31T00:25:16.232Z,66.53
2019-03-31T00:27:46.271Z,66.58
2019-03-31T00:30:16.575Z,66.67
2019-03-31T00:32:46.597Z,66.80
2019-03-31T00:35:16.665Z,67.24
2019-03-31T00:37:47.025Z,67.15
2019-03-31T00:42:56.423Z,67.17
2019-03-31T00:45:26.570Z,67.03
2019-03-31T00:47:56.506Z,67.32
2019-03-31T00:53:05.909Z,67.55
2019-03-31T00:55:35.959Z,67.63
2019-03-31T00:58:05.998Z,67.66
2019-03-31T01:00:36.340Z,67.61
2019-03-31T01:03:06.643Z,67.88
2019-03-31T01:05:36.981Z,68.40
2019-03-31T01:08:07.282Z,68.65
2019-03-31T01:13:17.249Z,68.82
2019-03-31T01:18:26.874Z,68.95
2019-03-31T01:20:56.919Z,69.14
2019-03-31T01:23:26.960Z,68.98
2019-03-31T01:26:00.391Z,69.38
2019-03-31T01:28:27.593Z,69.15
2019-03-31T01:30:57.643Z,69.16
2019-03-31T01:33:27.691Z,69.08
2019-03-31T01:35:57.760Z,69.01
2019-03-31T01:38:27.805Z,69.18
2019-03-31T01:43:37.229Z,69.42
2019-03-31T01:46:07.303Z,69.58
2019-03-31T01:48:37.656Z,69.50
2019-03-31T01:51:08.072Z,69.47
2019-03-31T01:53:38.120Z,69.60
2019-03-31T01:56:08.507Z,69.88
2019-03-31T01:58:38.546Z,69.82
2019-03-31T02:01:08.969Z,69.90
2019-03-31T02:03:39.278Z,70.14
2019-03-31T02:06:09.328Z,69.84
2019-03-31T02:08:39.386Z,69.86
2019-03-31T02:11:09.428Z,70.37
2019-03-31T02:13:39.744Z,70.85
2019-03-31T02:16:09.792Z,70.59
2019-03-31T02:18:39.835Z,70.51
2019-03-31T02:21:10.206Z,70.51
2019-03-31T02:26:19.915Z,70.67
2019-03-31T02:28:50.327Z,70.57
2019-03-31T02:31:20.393Z,70.79
2019-03-31T02:33:50.425Z,70.92
2019-03-31T02:36:20.473Z,70.90
2019-03-31T02:38:50.504Z,71.32
2019-03-31T02:41:20.869Z,71.43
2019-03-31T02:43:50.904Z,71.41
2019-03-31T02:46:20.953Z,71.41
2019-03-31T02:48:50.986Z,71.30
2019-03-31T02:51:21.042Z,71.42
2019-03-31T02:53:51.364Z,71.69
2019-03-31T02:56:21.403Z,71.52
2019-03-31T02:58:51.799Z,71.56
2019-03-31T03:01:21.845Z,71.74
2019-03-31T03:03:51.907Z,71.86
2019-03-31T03:06:21.935Z,71.85
2019-03-31T03:08:51.980Z,71.81
2019-03-31T03:11:22.019Z,72.00
2019-03-31T03:13:52.051Z,71.95
2019-03-31T03:16:22.424Z,72.05
2019-03-31T03:18:52.474Z,72.02
2019-03-31T03:21:24.710Z,72.14
2019-03-31T03:23:52.581Z,72.37
2019-03-31T03:26:22.633Z,72.36
2019-03-31T03:28:52.662Z,72.39
2019-03-31T03:31:23.043Z,72.59
2019-03-31T03:33:53.073Z,72.52
2019-03-31T03:36:23.482Z,72.44
2019-03-31T03:38:53.510Z,72.45
2019-03-31T03:41:23.564Z,72.61
2019-03-31T03:43:56.327Z,72.61
2019-03-31T03:46:23.944Z,72.79
2019-03-31T03:48:54.024Z,72.89
2019-03-31T03:51:24.036Z,73.03
2019-03-31T03:53:54.084Z,73.01
2019-03-31T03:56:28.744Z,73.19
2019-03-31T03:58:54.173Z,73.11
2019-03-31T04:01:24.234Z,73.52
2019-03-31T04:03:54.273Z,73.52
2019-03-31T04:06:24.328Z,73.57
2019-03-31T04:08:54.683Z,73.27
2019-03-31T04:11:24.765Z,73.19
2019-03-31T04:13:54.828Z,73.22
2019-03-31T04:16:24.880Z,73.37
2019-03-31T04:18:54.924Z,73.54
2019-03-31T04:21:24.991Z,73.70
2019-03-31T04:23:55.026Z,73.60
2019-03-31T04:26:25.099Z,73.94
2019-03-31T04:28:55.106Z,74.01
2019-03-31T04:31:25.155Z,74.09
2019-03-31T04:33:55.202Z,73.99
2019-03-31T04:39:04.592Z,74.03
2019-03-31T04:44:14.356Z,74.19
2019-03-31T04:46:44.690Z,74.77
2019-03-31T04:49:14.719Z,74.35
2019-03-31T04:51:45.163Z,74.36
2019-03-31T04:54:15.206Z,74.17
2019-03-31T04:56:45.292Z,75.25
2019-03-31T04:59:15.686Z,74.76
2019-03-31T05:01:45.723Z,74.79
2019-03-31T05:04:16.128Z,75.02
2019-03-31T05:06:46.258Z,74.93
2019-03-31T05:11:55.593Z,74.45
2019-03-31T05:14:25.626Z,74.81
2019-03-31T05:16:55.665Z,74.66
2019-03-31T05:19:25.694Z,74.60
2019-03-31T05:21:56.059Z,74.56
2019-03-31T05:24:26.388Z,74.46
2019-03-31T05:26:56.445Z,74.56
2019-03-31T05:29:26.822Z,74.75
2019-03-31T05:31:57.141Z,74.44
2019-03-31T05:34:27.182Z,74.92
2019-03-31T05:36:57.229Z,74.73
2019-03-31T05:42:06.979Z,74.77
2019-03-31T05:44:37.111Z,74.59
2019-03-31T05:47:07.381Z,74.45
2019-03-31T05:49:37.420Z,74.57
2019-03-31T05:52:07.466Z,74.60
2019-03-31T05:54:37.516Z,74.42
2019-03-31T05:57:08.156Z,74.61
2019-03-31T05:59:38.194Z,74.75
2019-03-31T06:02:08.621Z,74.46
2019-03-31T06:04:38.653Z,74.59
2019-03-31T06:07:09.038Z,74.71
2019-03-31T06:12:18.543Z,74.56
2019-03-31T06:14:48.855Z,74.49
2019-03-31T06:17:19.240Z,75.08
2019-03-31T06:19:49.334Z,74.40
2019-03-31T06:22:19.689Z,73.80
2019-03-31T06:24:49.999Z,74.12
2019-03-31T06:27:20.069Z,73.63
2019-03-31T06:29:50.098Z,73.69
2019-03-31T06:32:20.142Z,72.97
2019-03-31T06:34:50.471Z,72.45
2019-03-31T06:37:20.520Z,72.29
2019-03-31T06:39:50.554Z,72.09
2019-03-31T06:42:20.931Z,71.36
2019-03-31T06:44:50.968Z,72.77
2019-03-31T06:47:21.015Z,73.05
2019-03-31T06:49:51.048Z,72.76
2019-03-31T06:52:21.092Z,73.11
2019-03-31T06:54:51.137Z,72.35
2019-03-31T06:57:21.521Z,72.03
2019-03-31T06:59:51.551Z,70.63
2019-03-31T07:02:21.997Z,71.40
2019-03-31T07:05:00.851Z,71.78
2019-03-31T07:07:23.995Z,70.99
2019-03-31T07:09:52.736Z,70.41
2019-03-31T07:12:23.070Z,69.54
2019-03-31T07:14:53.177Z,68.62
2019-03-31T07:17:23.285Z,69.25
2019-03-31T07:19:53.612Z,69.15
2019-03-31T07:22:24.466Z,67.82
2019-03-31T07:24:55.114Z,67.89
2019-03-31T07:27:25.523Z,68.16
2019-03-31T07:29:55.848Z,68.19
2019-03-31T07:32:26.241Z,67.37
2019-03-31T07:34:56.300Z,67.70
2019-03-31T07:37:26.440Z,68.99
2019-03-31T07:39:56.630Z,69.52
2019-03-31T07:42:27.030Z,68.19
2019-03-31T07:44:56.874Z,67.90
2019-03-31T07:47:26.920Z,68.71
2019-03-31T07:49:56.957Z,68.80
2019-03-31T07:52:27.296Z,69.07
2019-03-31T07:54:57.346Z,68.63
2019-03-31T08:02:46.613Z,66.95
2019-03-31T08:07:56.046Z,66.04
2019-03-31T08:10:26.090Z,65.42
2019-03-31T08:12:56.337Z,65.29
2019-03-31T08:18:06.453Z,63.77
2019-03-31T08:20:36.427Z,64.44
2019-03-31T08:23:06.480Z,65.38
2019-03-31T08:25:36.919Z,65.69
2019-03-31T08:28:07.344Z,66.05
2019-03-31T08:30:37.404Z,66.55
2019-03-31T08:33:07.462Z,66.24
2019-03-31T08:35:47.369Z,66.06
2019-03-31T08:38:07.986Z,66.61
2019-03-31T08:40:38.125Z,66.75
2019-03-31T08:43:08.072Z,67.96
2019-03-31T08:48:17.491Z,68.22
2019-03-31T08:53:26.902Z,67.26
2019-03-31T08:55:57.291Z,66.95
2019-03-31T08:58:27.354Z,68.13
2019-03-31T09:03:36.858Z,68.35
2019-03-31T09:06:06.902Z,67.96
2019-03-31T09:08:37.408Z,68.08
2019-03-31T09:11:07.714Z,68.53
2019-03-31T09:13:37.798Z,69.11
2019-03-31T09:16:07.835Z,68.64
2019-03-31T09:18:38.288Z,68.66
2019-03-31T09:23:48.242Z,67.54
2019-03-31T09:26:18.302Z,67.68
2019-03-31T09:28:48.683Z,67.39
2019-03-31T09:31:19.000Z,66.14
2019-03-31T09:33:49.320Z,66.90
2019-03-31T09:36:19.757Z,65.81
2019-03-31T09:38:49.820Z,67.34
2019-03-31T09:41:19.865Z,67.03
2019-03-31T09:43:50.207Z,67.56
2019-03-31T09:46:20.529Z,66.92
2019-03-31T09:48:50.904Z,65.42
2019-03-31T09:51:21.294Z,62.95
2019-03-31T09:53:51.347Z,62.91
2019-03-31T09:56:21.386Z,62.38
2019-03-31T09:58:51.444Z,64.15
2019-03-31T10:01:21.859Z,64.99
2019-03-31T10:03:52.306Z,63.99
2019-03-31T10:06:30.056Z,65.23
2019-03-31T10:08:53.215Z,64.80
2019-03-31T10:11:23.175Z,64.95
2019-03-31T10:13:53.241Z,65.60
2019-03-31T10:16:23.278Z,66.29
2019-03-31T10:18:53.717Z,64.19
2019-03-31T10:21:23.756Z,64.39
2019-03-31T10:23:53.819Z,63.85
2019-03-31T10:26:31.786Z,63.25
2019-03-31T10:28:53.909Z,63.89
2019-03-31T10:31:23.955Z,64.24
2019-03-31T10:33:54.015Z,64.22
2019-03-31T10:36:24.322Z,64.89
2019-03-31T10:38:54.400Z,64.57
2019-03-31T10:41:24.783Z,65.57
2019-03-31T10:43:55.188Z,65.83
2019-03-31T10:46:25.245Z,64.43
2019-03-31T10:48:55.620Z,64.74
2019-03-31T10:51:25.657Z,65.07
2019-03-31T10:53:55.726Z,65.70
2019-03-31T10:56:25.776Z,65.53
2019-03-31T10:58:55.845Z,65.70
2019-03-31T11:01:25.892Z,65.07
2019-03-31T11:03:55.942Z,65.10
2019-03-31T11:06:25.981Z,65.92
2019-03-31T11:08:56.036Z,65.44
2019-03-31T11:14:05.726Z,66.68
2019-03-31T11:19:15.127Z,66.00
2019-03-31T11:21:45.165Z,65.78
2019-03-31T11:24:15.501Z,66.36
2019-03-31T11:26:45.587Z,66.56
2019-03-31T11:29:15.959Z,67.57
2019-03-31T11:31:46.262Z,68.13
2019-03-31T11:34:19.504Z,68.39
2019-03-31T11:36:46.728Z,68.15
2019-03-31T11:41:56.532Z,67.57
2019-03-31T11:44:27.853Z,67.91
2019-03-31T11:46:56.638Z,68.40
2019-03-31T11:49:26.684Z,67.92
2019-03-31T11:51:56.804Z,68.01
2019-03-31T11:54:26.860Z,68.15
2019-03-31T11:56:56.907Z,67.90
2019-03-31T12:02:06.361Z,68.02
2019-03-31T12:04:36.767Z,67.83
2019-03-31T12:07:06.804Z,68.33
2019-03-31T12:09:36.851Z,68.43
2019-03-31T12:12:07.001Z,69.14
2019-03-31T12:14:37.190Z,68.83
2019-03-31T12:17:07.126Z,66.92
2019-03-31T12:19:37.175Z,66.13
2019-03-31T12:22:07.212Z,66.32
2019-03-31T12:24:37.260Z,66.05
2019-03-31T12:29:46.977Z,65.41
2019-03-31T12:32:17.022Z,63.19
2019-03-31T12:34:47.087Z,63.78
2019-03-31T12:37:17.393Z,61.72
2019-03-31T12:39:47.463Z,63.87
2019-03-31T12:44:56.894Z,66.19
2019-03-31T12:47:26.942Z,65.63
2019-03-31T12:49:56.988Z,66.99
2019-03-31T12:55:06.716Z,66.92
2019-03-31T13:00:16.123Z,67.83
2019-03-31T13:02:46.161Z,66.71
2019-03-31T13:05:16.208Z,67.75
2019-03-31T13:10:25.617Z,66.92
2019-03-31T13:12:56.003Z,67.68
2019-03-31T13:15:26.329Z,66.54
2019-03-31T13:20:35.732Z,66.96
2019-03-31T13:23:05.768Z,66.83
2019-03-31T13:25:35.823Z,66.34
2019-03-31T13:28:06.229Z,66.37
2019-03-31T13:30:36.185Z,66.25
2019-03-31T13:33:06.578Z,64.63
2019-03-31T13:35:37.009Z,65.15
2019-03-31T13:38:11.363Z,65.29
2019-03-31T13:40:37.505Z,64.78
2019-03-31T13:43:07.544Z,64.03
2019-03-31T13:45:37.611Z,65.19
2019-03-31T13:48:07.650Z,65.49
2019-03-31T13:50:37.696Z,65.22
2019-03-31T13:53:07.808Z,66.10
2019-03-31T13:58:19.025Z,65.85
2019-03-31T14:03:27.340Z,65.35
2019-03-31T14:05:57.664Z,65.23
2019-03-31T14:08:27.709Z,65.40
2019-03-31T14:13:37.118Z,64.98
2019-03-31T14:18:46.561Z,65.20
2019-03-31T14:21:16.913Z,64.54
2019-03-31T14:23:47.202Z,64.95
2019-03-31T14:28:59.419Z,65.71
2019-03-31T14:34:09.140Z,64.67
2019-03-31T14:39:18.551Z,65.22
2019-03-31T14:41:48.895Z,64.91
2019-03-31T14:44:18.930Z,65.39
2019-03-31T14:46:49.309Z,63.92
2019-03-31T14:49:19.635Z,64.34
2019-03-31T14:51:49.684Z,64.09
2019-03-31T14:54:19.996Z,65.45
2019-03-31T14:56:50.052Z,64.13
2019-03-31T14:59:20.091Z,64.64
2019-03-31T15:01:50.171Z,64.01
2019-03-31T15:04:20.550Z,63.99
2019-03-31T15:06:50.597Z,63.35
2019-03-31T15:12:00.026Z,63.83
2019-03-31T15:14:30.364Z,64.68
2019-03-31T15:22:19.554Z,63.02
2019-03-31T15:24:49.991Z,64.18
2019-03-31T15:27:20.385Z,64.30
2019-03-31T15:29:50.738Z,64.85
2019-03-31T15:32:21.030Z,63.84
2019-03-31T15:34:51.068Z,64.12
2019-03-31T15:37:21.378Z,64.38
2019-03-31T15:39:51.696Z,63.82
2019-03-31T15:42:21.764Z,65.04
2019-03-31T15:44:51.890Z,65.23
2019-03-31T15:47:21.908Z,64.44
2019-03-31T15:49:51.946Z,64.44
2019-03-31T15:52:22.278Z,64.89
2019-03-31T15:54:52.357Z,65.51
2019-03-31T15:57:22.403Z,65.94
2019-03-31T15:59:52.750Z,65.63
2019-03-31T16:02:22.793Z,65.73
2019-03-31T16:07:32.924Z,66.35
2019-03-31T16:10:03.240Z,65.47
2019-03-31T16:12:33.397Z,65.84
2019-03-31T16:15:03.324Z,66.07
2019-03-31T16:17:33.372Z,67.04
2019-03-31T16:22:43.097Z,66.85
2019-03-31T16:25:13.479Z,66.82
2019-03-31T16:27:43.804Z,67.11
2019-03-31T16:32:53.202Z,66.87
2019-03-31T16:35:23.580Z,67.50
2019-03-31T16:37:53.622Z,67.70
2019-03-31T16:40:24.008Z,67.43
2019-03-31T16:42:54.053Z,68.34
2019-03-31T16:48:03.456Z,67.93
2019-03-31T16:50:33.505Z,68.67
2019-03-31T16:53:03.565Z,69.02
2019-03-31T16:55:33.948Z,68.58
2019-03-31T16:58:03.993Z,69.23
2019-03-31T17:00:34.052Z,68.59
2019-03-31T17:03:04.121Z,67.69
2019-03-31T17:05:34.161Z,68.17
2019-03-31T17:10:43.897Z,68.64
2019-03-31T17:13:13.949Z,68.17
2019-03-31T17:15:43.982Z,68.80
2019-03-31T17:18:14.182Z,69.25
2019-03-31T17:20:44.535Z,68.31
2019-03-31T17:23:14.861Z,68.05
2019-03-31T17:25:44.899Z,68.27
2019-03-31T17:28:15.307Z,69.08
2019-03-31T17:30:45.612Z,68.02
2019-03-31T17:33:15.655Z,68.78
2019-03-31T17:35:45.965Z,68.08
2019-03-31T17:38:16.002Z,68.60
2019-03-31T17:40:46.047Z,68.96
2019-03-31T17:43:16.410Z,67.91
2019-03-31T17:45:46.488Z,68.07
2019-03-31T17:48:16.532Z,69.08
2019-03-31T17:50:46.602Z,69.46
2019-03-31T17:55:56.002Z,66.08
2019-03-31T17:58:26.038Z,66.21
2019-03-31T18:03:35.685Z,66.57
2019-03-31T18:06:05.731Z,66.70
2019-03-31T18:08:36.132Z,67.52
2019-03-31T18:11:06.550Z,68.17
2019-03-31T18:13:36.491Z,67.92
2019-03-31T18:18:46.542Z,68.41
2019-03-31T18:21:16.573Z,68.36
2019-03-31T18:23:46.629Z,67.92
2019-03-31T18:26:16.664Z,68.39
2019-03-31T18:34:05.443Z,68.90
2019-03-31T18:36:37.213Z,69.14
2019-03-31T18:39:06.335Z,68.90
2019-03-31T18:44:16.150Z,69.14
2019-03-31T18:46:46.185Z,69.54
2019-03-31T18:51:56.252Z,67.65
2019-03-31T18:54:26.290Z,67.87
2019-03-31T18:56:56.589Z,67.91
2019-03-31T18:59:26.909Z,68.73
2019-03-31T19:04:36.308Z,69.36
2019-03-31T19:07:06.346Z,69.54
2019-03-31T19:09:36.400Z,69.69
2019-03-31T19:12:06.418Z,69.91
2019-03-31T19:14:36.551Z,69.27
2019-03-31T19:17:06.853Z,69.86
2019-03-31T19:19:36.991Z,70.44
2019-03-31T19:22:07.015Z,69.86
2019-03-31T19:24:37.434Z,69.61
2019-03-31T19:27:07.450Z,69.92
2019-03-31T19:32:17.127Z,69.04
2019-03-31T19:34:47.197Z,68.46
2019-03-31T19:37:17.264Z,68.35
2019-03-31T19:42:27.009Z,69.63
2019-03-31T19:50:16.162Z,69.82
2019-03-31T19:52:46.207Z,69.67
2019-03-31T19:55:16.229Z,69.39
2019-03-31T19:57:46.648Z,69.96
2019-03-31T20:00:17.059Z,70.33
2019-03-31T20:02:47.384Z,71.09
2019-03-31T20:05:17.410Z,71.23
2019-03-31T20:10:26.813Z,71.53
2019-03-31T20:12:56.858Z,71.49
2019-03-31T20:15:26.883Z,71.63
2019-03-31T20:17:56.933Z,71.31
2019-03-31T20:20:27.322Z,71.02
2019-03-31T20:22:57.376Z,71.16
2019-03-31T20:25:27.424Z,71.44
2019-03-31T20:27:59.601Z,71.37
2019-03-31T20:30:27.508Z,71.43
2019-03-31T20:35:37.308Z,72.27
2019-03-31T20:40:46.709Z,72.20
2019-03-31T20:43:16.753Z,72.34
2019-03-31T20:45:46.778Z,72.61
2019-03-31T20:48:16.846Z,73.00
2019-03-31T20:50:47.168Z,72.61
2019-03-31T20:55:56.931Z,73.03
2019-03-31T20:58:27.243Z,72.77
2019-03-31T21:00:57.269Z,72.74
2019-03-31T21:06:06.679Z,73.41
2019-03-31T21:11:16.092Z,73.46
2019-03-31T21:13:46.129Z,73.47
2019-03-31T21:16:16.162Z,73.54
2019-03-31T21:24:04.913Z,73.96
2019-03-31T21:29:14.947Z,73.66
2019-03-31T21:31:44.977Z,73.61
2019-03-31T21:34:15.034Z,73.76
2019-03-31T21:36:45.413Z,74.28
2019-03-31T21:41:55.168Z,74.29
2019-03-31T21:44:25.587Z,74.41
2019-03-31T21:52:14.397Z,74.59
2019-03-31T21:54:44.424Z,74.45
2019-03-31T21:59:53.846Z,74.17
2019-03-31T22:02:23.919Z,74.72
2019-03-31T22:04:54.284Z,74.82
2019-03-31T22:10:04.042Z,74.85
2019-03-31T22:12:34.089Z,74.95
2019-03-31T22:17:43.805Z,75.31
2019-03-31T22:22:53.779Z,74.63
2019-03-31T22:28:03.176Z,74.63
2019-03-31T22:30:33.540Z,74.71
2019-03-31T22:33:03.565Z,74.81
2019-03-31T22:38:12.970Z,74.53
2019-03-31T22:40:43.013Z,73.79
2019-03-31T22:43:13.356Z,73.79
2019-03-31T22:45:43.676Z,74.11
2019-03-31T22:50:53.357Z,73.99
2019-03-31T22:53:23.656Z,73.97
2019-03-31T22:58:33.060Z,73.99
2019-03-31T23:03:42.823Z,73.55
2019-03-31T23:08:52.549Z,73.77
2019-03-31T23:11:22.945Z,73.75
2019-03-31T23:13:53.384Z,71.89
2019-03-31T23:16:23.453Z,72.00
2019-03-31T23:18:53.509Z,72.95
2019-03-31T23:21:23.555Z,71.84
2019-03-31T23:29:12.320Z,71.86
2019-03-31T23:31:42.355Z,70.26
2019-03-31T23:34:12.412Z,69.76
2019-03-31T23:39:22.097Z,70.27
2019-03-31T23:41:52.523Z,70.00
2019-03-31T23:44:22.569Z,69.51
2019-03-31T23:46:52.640Z,69.90
2019-03-31T23:49:22.994Z,69.90
2019-03-31T23:54:32.733Z,69.88
2019-03-31T23:57:02.767Z,70.10
2019-03-31T23:59:32.784Z,69.95
